Main page
METAR-TAF:

METAR-TAF

Airports :

Qurghonteppa, Tajikistan

Qurghonteppa International Airport

latitude: 37-51-44N, longitude: 068-51-46E, elevation: 449 m

Current weather observation

The report was made 27 minutes ago, at 11:30 UTC
Calm wind
Temperature 17°C
Humidity 39%
Pressure 1022 hPa
Visibility: 7000 m
Few clouds at a height of 10000 ft

METAR: UTDT 201130Z 00000MPS 7000 FEW100 17/03 Q1022 35CLRD70 RMK QFE727/0969

Time: 16:57 (11:57 UTC)

Forecast

The report was made 2 hours and 57 minutes ago, at 09:00 UTC
Forecast valid from 20 at 10 UTC to 20 at 19 UTC
Wind 4 kt from variable directions
Visibility: 6000 m
Few clouds at a height of 6600 ft
Scattered clouds at a height of 15000 ft
Temporary
from 20 at 10 UTC to 20 at 19 UTC
Wind 12 kt from the Southwest
Becoming
from 20 at 15 UTC to 20 at 17 UTC
Visibility: 2100 m
mist

TAF: UTDT 200900Z 2010/2019 VRB02MPS 6000 FEW066 SCT150 TEMPO 2010/2019 22006MPS BECMG 2015/2017 2100 BR

Weather observations and forecasts of more than 4000 airports (METAR and TAF reports).

The available stations are represented by yellow and red dots on the map.

Hover mouse over dot to see the name of the station.

Then click to see weather observations and forecasts.

To change the map : click on the green buttons with a black cross to zoom in, on the green button with a dash to zoom out, or on the green arrows for adjacent maps.


METAR-TAF: